sensor_id;sensor_type;location;lat;lon;timestamp;pressure;altitude;pressure_sealevel;temperature;humidity
76124;BME280;65173;48.066;20.976;2024-02-15T00:02:27;101196.88;;;0.60;100.00
76124;BME280;65173;48.066;20.976;2024-02-15T00:05:30;101194.09;;;0.43;100.00
76124;BME280;65173;48.066;20.976;2024-02-15T00:08:32;101198.00;;;0.52;100.00
76124;BME280;65173;48.066;20.976;2024-02-15T00:11:36;101193.22;;;0.61;100.00
76124;BME280;65173;48.066;20.976;2024-02-15T00:14:38;101206.84;;;0.69;100.00
76124;BME280;65173;48.066;20.976;2024-02-15T00:17:41;101207.28;;;0.66;100.00
76124;BME280;65173;48.066;20.976;2024-02-15T00:20:44;101204.81;;;0.72;100.00
76124;BME280;65173;48.066;20.976;2024-02-15T00:23:46;101203.81;;;0.54;100.00
76124;BME280;65173;48.066;20.976;2024-02-15T00:26:49;101198.69;;;0.48;100.00
76124;BME280;65173;48.066;20.976;2024-02-15T00:29:51;101200.53;;;0.59;100.00
76124;BME280;65173;48.066;20.976;2024-02-15T00:32:54;101202.13;;;0.60;100.00
76124;BME280;65173;48.066;20.976;2024-02-15T00:35:58;101204.66;;;0.66;100.00
76124;BME280;65173;48.066;20.976;2024-02-15T00:39:00;101213.69;;;0.71;100.00
76124;BME280;65173;48.066;20.976;2024-02-15T00:42:03;101201.38;;;0.71;100.00
76124;BME280;65173;48.066;20.976;2024-02-15T00:45:08;101211.38;;;0.62;100.00
76124;BME280;65173;48.066;20.976;2024-02-15T00:48:11;101214.84;;;0.45;100.00
76124;BME280;65173;48.066;20.976;2024-02-15T00:51:14;101208.59;;;0.46;100.00
76124;BME280;65173;48.066;20.976;2024-02-15T00:54:16;101200.78;;;0.39;100.00
76124;BME280;65173;48.066;20.976;2024-02-15T00:57:19;101191.38;;;0.20;100.00
76124;BME280;65173;48.066;20.976;2024-02-15T01:00:21;101193.19;;;0.19;100.00
76124;BME280;65173;48.066;20.976;2024-02-15T01:03:24;101192.91;;;0.27;100.00
76124;BME280;65173;48.066;20.976;2024-02-15T01:06:27;101191.22;;;0.33;100.00
76124;BME280;65173;48.066;20.976;2024-02-15T01:09:29;101188.31;;;0.23;100.00
76124;BME280;65173;48.066;20.976;2024-02-15T01:12:32;101184.09;;;0.22;100.00
76124;BME280;65173;48.066;20.976;2024-02-15T01:15:35;101191.03;;;0.16;100.00
76124;BME280;65173;48.066;20.976;2024-02-15T01:18:39;101190.84;;;-0.01;100.00
76124;BME280;65173;48.066;20.976;2024-02-15T01:21:42;101182.41;;;-0.21;100.00
76124;BME280;65173;48.066;20.976;2024-02-15T01:24:46;101177.22;;;0.09;100.00
76124;BME280;65173;48.066;20.976;2024-02-15T01:27:48;101176.56;;;-0.05;100.00
76124;BME280;65173;48.066;20.976;2024-02-15T01:30:51;101178.94;;;0.15;100.00
76124;BME280;65173;48.066;20.976;2024-02-15T01:33:53;101184.72;;;0.06;100.00
76124;BME280;65173;48.066;20.976;2024-02-15T01:36:56;101177.38;;;-0.04;100.00
76124;BME280;65173;48.066;20.976;2024-02-15T01:39:58;101181.59;;;-0.03;100.00
76124;BME280;65173;48.066;20.976;2024-02-15T01:43:01;101177.81;;;-0.07;100.00
76124;BME280;65173;48.066;20.976;2024-02-15T01:46:10;101190.34;;;-0.09;100.00
76124;BME280;65173;48.066;20.976;2024-02-15T01:49:13;101173.75;;;-0.21;100.00
76124;BME280;65173;48.066;20.976;2024-02-15T01:52:16;101184.56;;;-0.18;100.00
76124;BME280;65173;48.066;20.976;2024-02-15T01:55:20;101187.28;;;-0.24;100.00
76124;BME280;65173;48.066;20.976;2024-02-15T01:58:28;101194.28;;;-0.18;100.00
76124;BME280;65173;48.066;20.976;2024-02-15T02:01:34;101183.13;;;-0.32;100.00
76124;BME280;65173;48.066;20.976;2024-02-15T02:04:37;101182.22;;;-0.38;100.00
76124;BME280;65173;48.066;20.976;2024-02-15T02:07:40;101189.69;;;-0.41;100.00
76124;BME280;65173;48.066;20.976;2024-02-15T02:10:43;101186.34;;;-0.30;100.00
76124;BME280;65173;48.066;20.976;2024-02-15T02:13:48;101189.16;;;-0.50;100.00
76124;BME280;65173;48.066;20.976;2024-02-15T02:16:50;101183.66;;;-0.42;100.00
76124;BME280;65173;48.066;20.976;2024-02-15T02:19:54;101180.66;;;-0.27;100.00
76124;BME280;65173;48.066;20.976;2024-02-15T02:23:15;101189.47;;;-0.21;100.00
76124;BME280;65173;48.066;20.976;2024-02-15T02:26:20;101191.66;;;-0.18;100.00
76124;BME280;65173;48.066;20.976;2024-02-15T02:29:23;101190.28;;;-0.21;100.00
76124;BME280;65173;48.066;20.976;2024-02-15T02:32:26;101194.19;;;-0.30;100.00
76124;BME280;65173;48.066;20.976;2024-02-15T02:35:29;101193.38;;;-0.30;100.00
76124;BME280;65173;48.066;20.976;2024-02-15T02:38:35;101201.03;;;-0.47;100.00
76124;BME280;65173;48.066;20.976;2024-02-15T02:41:40;101206.56;;;-0.55;100.00
76124;BME280;65173;48.066;20.976;2024-02-15T02:44:43;101206.47;;;-0.49;100.00
76124;BME280;65173;48.066;20.976;2024-02-15T02:47:46;101207.50;;;-0.50;100.00
76124;BME280;65173;48.066;20.976;2024-02-15T02:50:51;101206.84;;;-0.45;100.00
76124;BME280;65173;48.066;20.976;2024-02-15T02:53:53;101205.75;;;-0.56;100.00
76124;BME280;65173;48.066;20.976;2024-02-15T02:56:56;101212.13;;;-0.52;100.00
76124;BME280;65173;48.066;20.976;2024-02-15T02:59:58;101200.00;;;-0.46;100.00
76124;BME280;65173;48.066;20.976;2024-02-15T03:03:01;101207.88;;;-0.71;100.00
76124;BME280;65173;48.066;20.976;2024-02-15T03:06:04;101197.81;;;-0.49;100.00
76124;BME280;65173;48.066;20.976;2024-02-15T03:09:07;101199.34;;;-0.60;100.00
76124;BME280;65173;48.066;20.976;2024-02-15T03:12:12;101200.53;;;-0.56;100.00
76124;BME280;65173;48.066;20.976;2024-02-15T03:15:15;101209.59;;;-0.58;100.00
76124;BME280;65173;48.066;20.976;2024-02-15T03:18:18;101212.88;;;-0.63;100.00
76124;BME280;65173;48.066;20.976;2024-02-15T03:21:21;101205.22;;;-0.89;100.00
76124;BME280;65173;48.066;20.976;2024-02-15T03:24:23;101206.31;;;-0.72;100.00
76124;BME280;65173;48.066;20.976;2024-02-15T03:27:27;101206.06;;;-0.71;100.00
76124;BME280;65173;48.066;20.976;2024-02-15T03:30:32;101204.97;;;-0.56;100.00
76124;BME280;65173;48.066;20.976;2024-02-15T03:33:36;101203.47;;;-0.52;100.00
76124;BME280;65173;48.066;20.976;2024-02-15T03:36:39;101208.97;;;-0.54;100.00
76124;BME280;65173;48.066;20.976;2024-02-15T03:39:42;101203.63;;;-0.65;100.00
76124;BME280;65173;48.066;20.976;2024-02-15T03:42:46;101206.44;;;-0.67;100.00
76124;BME280;65173;48.066;20.976;2024-02-15T03:45:54;101209.44;;;-0.63;100.00
76124;BME280;65173;48.066;20.976;2024-02-15T03:48:57;101210.59;;;-0.78;100.00
76124;BME280;65173;48.066;20.976;2024-02-15T03:52:00;101215.44;;;-0.81;100.00
76124;BME280;65173;48.066;20.976;2024-02-15T03:55:03;101220.41;;;-0.73;100.00
76124;BME280;65173;48.066;20.976;2024-02-15T03:58:06;101233.13;;;-0.77;100.00
76124;BME280;65173;48.066;20.976;2024-02-15T04:01:10;101231.72;;;-0.79;100.00
76124;BME280;65173;48.066;20.976;2024-02-15T04:04:13;101231.53;;;-0.78;100.00
76124;BME280;65173;48.066;20.976;2024-02-15T04:07:16;101246.81;;;-0.75;100.00
76124;BME280;65173;48.066;20.976;2024-02-15T04:10:18;101245.34;;;-0.95;100.00
76124;BME280;65173;48.066;20.976;2024-02-15T04:13:21;101236.91;;;-0.97;100.00
76124;BME280;65173;48.066;20.976;2024-02-15T04:16:23;101229.22;;;-0.92;100.00
76124;BME280;65173;48.066;20.976;2024-02-15T04:19:27;101234.81;;;-0.89;100.00
76124;BME280;65173;48.066;20.976;2024-02-15T04:22:30;101229.66;;;-0.95;100.00
76124;BME280;65173;48.066;20.976;2024-02-15T04:25:39;101219.72;;;-0.87;100.00
76124;BME280;65173;48.066;20.976;2024-02-15T04:28:43;101219.88;;;-0.82;100.00
76124;BME280;65173;48.066;20.976;2024-02-15T04:31:46;101216.53;;;-0.71;100.00
76124;BME280;65173;48.066;20.976;2024-02-15T04:34:51;101212.88;;;-0.88;100.00
76124;BME280;65173;48.066;20.976;2024-02-15T04:37:54;101211.97;;;-1.00;100.00
76124;BME280;65173;48.066;20.976;2024-02-15T04:40:57;101211.53;;;-0.97;100.00
76124;BME280;65173;48.066;20.976;2024-02-15T04:44:02;101216.94;;;-0.92;100.00
76124;BME280;65173;48.066;20.976;2024-02-15T04:47:05;101217.09;;;-0.87;100.00
76124;BME280;65173;48.066;20.976;2024-02-15T04:50:07;101217.72;;;-0.66;100.00
76124;BME280;65173;48.066;20.976;2024-02-15T04:53:11;101217.72;;;-0.66;100.00
76124;BME280;65173;48.066;20.976;2024-02-15T04:56:14;101210.84;;;-0.86;100.00
76124;BME280;65173;48.066;20.976;2024-02-15T04:59:16;101209.34;;;-0.75;100.00
76124;BME280;65173;48.066;20.976;2024-02-15T05:02:19;101215.66;;;-0.83;100.00
76124;BME280;65173;48.066;20.976;2024-02-15T05:05:22;101212.44;;;-0.85;100.00
76124;BME280;65173;48.066;20.976;2024-02-15T05:08:26;101221.91;;;-0.84;100.00
76124;BME280;65173;48.066;20.976;2024-02-15T05:11:28;101222.66;;;-0.77;100.00
76124;BME280;65173;48.066;20.976;2024-02-15T05:14:31;101231.41;;;-0.64;100.00
76124;BME280;65173;48.066;20.976;2024-02-15T05:17:34;101231.81;;;-0.67;100.00
76124;BME280;65173;48.066;20.976;2024-02-15T05:20:36;101237.78;;;-0.79;100.00
76124;BME280;65173;48.066;20.976;2024-02-15T05:23:39;101236.59;;;-0.83;100.00
76124;BME280;65173;48.066;20.976;2024-02-15T05:26:45;101234.25;;;-0.91;100.00
76124;BME280;65173;48.066;20.976;2024-02-15T05:29:54;101239.22;;;-0.83;100.00
76124;BME280;65173;48.066;20.976;2024-02-15T05:32:57;101259.34;;;-0.83;100.00
76124;BME280;65173;48.066;20.976;2024-02-15T05:36:00;101255.91;;;-0.84;100.00
76124;BME280;65173;48.066;20.976;2024-02-15T05:39:02;101250.91;;;-0.85;100.00
76124;BME280;65173;48.066;20.976;2024-02-15T05:42:05;101246.56;;;-0.98;100.00
76124;BME280;65173;48.066;20.976;2024-02-15T05:45:34;101244.94;;;-0.92;100.00
76124;BME280;65173;48.066;20.976;2024-02-15T05:48:37;101241.81;;;-0.83;100.00
76124;BME280;65173;48.066;20.976;2024-02-15T05:51:41;101247.22;;;-0.78;100.00
76124;BME280;65173;48.066;20.976;2024-02-15T05:54:46;101255.22;;;-0.97;100.00
76124;BME280;65173;48.066;20.976;2024-02-15T05:57:49;101260.06;;;-1.01;100.00
76124;BME280;65173;48.066;20.976;2024-02-15T06:00:51;101267.25;;;-0.90;100.00
76124;BME280;65173;48.066;20.976;2024-02-15T06:03:55;101274.63;;;-0.80;100.00
76124;BME280;65173;48.066;20.976;2024-02-15T06:06:58;101270.22;;;-1.11;100.00
76124;BME280;65173;48.066;20.976;2024-02-15T06:10:03;101269.22;;;-1.10;100.00
76124;BME280;65173;48.066;20.976;2024-02-15T06:13:06;101264.22;;;-1.18;100.00
76124;BME280;65173;48.066;20.976;2024-02-15T06:16:11;101265.91;;;-0.99;100.00
76124;BME280;65173;48.066;20.976;2024-02-15T06:19:14;101276.31;;;-0.67;100.00
76124;BME280;65173;48.066;20.976;2024-02-15T06:22:17;101288.44;;;-0.48;100.00
76124;BME280;65173;48.066;20.976;2024-02-15T06:25:19;101292.88;;;-0.24;100.00
76124;BME280;65173;48.066;20.976;2024-02-15T06:28:24;101288.34;;;-0.17;100.00
76124;BME280;65173;48.066;20.976;2024-02-15T06:31:45;101288.59;;;-0.18;100.00
76124;BME280;65173;48.066;20.976;2024-02-15T06:35:06;101284.59;;;-0.03;100.00
76124;BME280;65173;48.066;20.976;2024-02-15T06:38:27;101285.53;;;0.03;100.00
76124;BME280;65173;48.066;20.976;2024-02-15T06:41:49;101279.41;;;-0.09;100.00
76124;BME280;65173;48.066;20.976;2024-02-15T06:44:51;101284.72;;;0.21;100.00
76124;BME280;65173;48.066;20.976;2024-02-15T06:47:54;101289.94;;;0.39;100.00
76124;BME280;65173;48.066;20.976;2024-02-15T06:50:57;101293.19;;;0.23;100.00
76124;BME280;65173;48.066;20.976;2024-02-15T06:54:00;101306.66;;;0.26;100.00
76124;BME280;65173;48.066;20.976;2024-02-15T06:57:03;101307.22;;;0.28;100.00
76124;BME280;65173;48.066;20.976;2024-02-15T07:00:09;101304.81;;;0.27;100.00
76124;BME280;65173;48.066;20.976;2024-02-15T07:03:12;101301.63;;;0.25;100.00
76124;BME280;65173;48.066;20.976;2024-02-15T07:06:15;101307.06;;;0.42;100.00
76124;BME280;65173;48.066;20.976;2024-02-15T07:09:18;101305.97;;;0.49;100.00
76124;BME280;65173;48.066;20.976;2024-02-15T07:12:21;101311.44;;;0.48;100.00
76124;BME280;65173;48.066;20.976;2024-02-15T07:15:24;101325.66;;;0.88;100.00
76124;BME280;65173;48.066;20.976;2024-02-15T07:18:27;101329.66;;;1.32;100.00
76124;BME280;65173;48.066;20.976;2024-02-15T07:21:31;101341.38;;;1.07;100.00
76124;BME280;65173;48.066;20.976;2024-02-15T07:24:34;101343.50;;;0.98;100.00
76124;BME280;65173;48.066;20.976;2024-02-15T07:27:37;101342.69;;;0.97;100.00
76124;BME280;65173;48.066;20.976;2024-02-15T07:30:41;101341.97;;;0.90;100.00
76124;BME280;65173;48.066;20.976;2024-02-15T07:33:44;101337.69;;;1.08;100.00
76124;BME280;65173;48.066;20.976;2024-02-15T07:36:46;101339.06;;;1.87;100.00
76124;BME280;65173;48.066;20.976;2024-02-15T07:39:49;101335.59;;;4.02;89.49
76124;BME280;65173;48.066;20.976;2024-02-15T07:42:51;101337.19;;;4.68;83.99
76124;BME280;65173;48.066;20.976;2024-02-15T07:45:54;101336.34;;;5.43;80.15
76124;BME280;65173;48.066;20.976;2024-02-15T07:48:57;101339.44;;;6.09;78.81
76124;BME280;65173;48.066;20.976;2024-02-15T07:52:00;101335.19;;;6.66;80.37
76124;BME280;65173;48.066;20.976;2024-02-15T07:55:02;101333.97;;;7.19;78.44
76124;BME280;65173;48.066;20.976;2024-02-15T07:58:10;101328.66;;;7.59;75.17
76124;BME280;65173;48.066;20.976;2024-02-15T08:01:13;101327.72;;;8.30;75.75
76124;BME280;65173;48.066;20.976;2024-02-15T08:04:16;101339.25;;;8.69;74.14
76124;BME280;65173;48.066;20.976;2024-02-15T08:07:23;101343.28;;;9.06;70.16
76124;BME280;65173;48.066;20.976;2024-02-15T08:10:26;101344.53;;;9.53;67.26
76124;BME280;65173;48.066;20.976;2024-02-15T08:13:30;101356.13;;;9.96;67.17
76124;BME280;65173;48.066;20.976;2024-02-15T08:16:32;101358.19;;;10.28;67.48
76124;BME280;65173;48.066;20.976;2024-02-15T08:19:36;101361.13;;;10.50;59.60
76124;BME280;65173;48.066;20.976;2024-02-15T08:22:39;101353.09;;;10.93;61.16
76124;BME280;65173;48.066;20.976;2024-02-15T08:25:42;101352.44;;;11.20;60.92
76124;BME280;65173;48.066;20.976;2024-02-15T08:28:44;101353.97;;;11.26;59.43
76124;BME280;65173;48.066;20.976;2024-02-15T08:31:47;101346.72;;;11.45;58.98
76124;BME280;65173;48.066;20.976;2024-02-15T08:34:51;101348.41;;;11.87;56.18
76124;BME280;65173;48.066;20.976;2024-02-15T08:37:54;101352.59;;;11.61;56.24
76124;BME280;65173;48.066;20.976;2024-02-15T08:40:56;101356.31;;;11.78;57.79
76124;BME280;65173;48.066;20.976;2024-02-15T08:43:59;101361.28;;;12.40;56.42
76124;BME280;65173;48.066;20.976;2024-02-15T08:47:03;101346.22;;;12.44;51.80
76124;BME280;65173;48.066;20.976;2024-02-15T08:50:08;101346.81;;;12.55;54.34
76124;BME280;65173;48.066;20.976;2024-02-15T08:53:14;101344.72;;;12.65;52.46
76124;BME280;65173;48.066;20.976;2024-02-15T08:56:17;101346.72;;;13.32;51.02
76124;BME280;65173;48.066;20.976;2024-02-15T08:59:20;101347.44;;;13.46;53.52
76124;BME280;65173;48.066;20.976;2024-02-15T09:02:22;101347.81;;;13.31;49.22
76124;BME280;65173;48.066;20.976;2024-02-15T09:05:25;101348.97;;;13.61;49.09
76124;BME280;65173;48.066;20.976;2024-02-15T09:08:28;101352.03;;;13.09;53.29
76124;BME280;65173;48.066;20.976;2024-02-15T09:11:32;101351.28;;;12.95;50.98
76124;BME280;65173;48.066;20.976;2024-02-15T09:14:38;101346.78;;;13.18;51.65
76124;BME280;65173;48.066;20.976;2024-02-15T09:17:41;101347.97;;;13.87;50.58
76124;BME280;65173;48.066;20.976;2024-02-15T09:20:48;101356.72;;;12.90;51.39
76124;BME280;65173;48.066;20.976;2024-02-15T09:23:57;101354.75;;;13.54;49.18
76124;BME280;65173;48.066;20.976;2024-02-15T09:27:01;101354.91;;;14.28;49.34
76124;BME280;65173;48.066;20.976;2024-02-15T09:30:04;101359.25;;;14.55;48.80
76124;BME280;65173;48.066;20.976;2024-02-15T09:33:12;101355.41;;;14.30;49.12
76124;BME280;65173;48.066;20.976;2024-02-15T09:36:14;101353.47;;;14.13;48.72
76124;BME280;65173;48.066;20.976;2024-02-15T09:39:18;101358.47;;;14.06;52.04
76124;BME280;65173;48.066;20.976;2024-02-15T09:42:21;101352.47;;;14.49;49.66
76124;BME280;65173;48.066;20.976;2024-02-15T09:45:24;101342.91;;;12.88;48.63
76124;BME280;65173;48.066;20.976;2024-02-15T09:48:29;101343.09;;;13.14;50.04
76124;BME280;65173;48.066;20.976;2024-02-15T09:51:34;101330.47;;;14.30;50.19
76124;BME280;65173;48.066;20.976;2024-02-15T09:54:40;101335.91;;;14.47;48.57
76124;BME280;65173;48.066;20.976;2024-02-15T09:57:46;101341.28;;;15.33;47.00
76124;BME280;65173;48.066;20.976;2024-02-15T10:00:49;101337.06;;;13.75;47.61
76124;BME280;65173;48.066;20.976;2024-02-15T10:03:52;101340.19;;;14.17;48.60
76124;BME280;65173;48.066;20.976;2024-02-15T10:06:55;101340.16;;;13.38;48.89
76124;BME280;65173;48.066;20.976;2024-02-15T10:10:14;101337.38;;;13.82;48.90
76124;BME280;65173;48.066;20.976;2024-02-15T10:13:22;101330.56;;;15.07;50.20
76124;BME280;65173;48.066;20.976;2024-02-15T10:16:26;101332.63;;;15.02;46.24
76124;BME280;65173;48.066;20.976;2024-02-15T10:19:29;101325.00;;;15.29;45.45
76124;BME280;65173;48.066;20.976;2024-02-15T10:22:37;101324.56;;;15.10;45.54
76124;BME280;65173;48.066;20.976;2024-02-15T10:25:40;101322.50;;;14.47;45.85
76124;BME280;65173;48.066;20.976;2024-02-15T10:28:43;101318.41;;;13.70;48.47
76124;BME280;65173;48.066;20.976;2024-02-15T10:32:12;101319.69;;;13.42;48.05
76124;BME280;65173;48.066;20.976;2024-02-15T10:35:21;101315.00;;;12.67;51.67
76124;BME280;65173;48.066;20.976;2024-02-15T10:38:25;101320.53;;;13.29;50.29
76124;BME280;65173;48.066;20.976;2024-02-15T10:41:27;101315.56;;;14.54;50.17
76124;BME280;65173;48.066;20.976;2024-02-15T10:44:30;101307.72;;;14.18;48.27
76124;BME280;65173;48.066;20.976;2024-02-15T10:47:34;101314.41;;;13.90;50.88
76124;BME280;65173;48.066;20.976;2024-02-15T10:50:40;101315.41;;;14.51;47.99
76124;BME280;65173;48.066;20.976;2024-02-15T10:53:50;101307.34;;;14.42;47.65
76124;BME280;65173;48.066;20.976;2024-02-15T10:57:03;101308.31;;;13.36;48.19
76124;BME280;65173;48.066;20.976;2024-02-15T11:00:07;101301.50;;;14.01;47.06
76124;BME280;65173;48.066;20.976;2024-02-15T11:03:29;101299.41;;;14.29;46.21
76124;BME280;65173;48.066;20.976;2024-02-15T11:06:38;101292.69;;;14.91;45.59
76124;BME280;65173;48.066;20.976;2024-02-15T11:09:45;101293.31;;;14.88;46.19
76124;BME280;65173;48.066;20.976;2024-02-15T11:12:48;101291.03;;;14.30;46.81
76124;BME280;65173;48.066;20.976;2024-02-15T11:15:53;101282.81;;;14.35;48.56
76124;BME280;65173;48.066;20.976;2024-02-15T11:18:56;101279.28;;;12.85;49.24
76124;BME280;65173;48.066;20.976;2024-02-15T11:21:59;101279.31;;;13.69;50.41
76124;BME280;65173;48.066;20.976;2024-02-15T11:25:06;101276.47;;;12.90;48.74
76124;BME280;65173;48.066;20.976;2024-02-15T11:31:55;101267.72;;;12.98;49.94
76124;BME280;65173;48.066;20.976;2024-02-15T11:38:28;101263.56;;;12.20;50.80
76124;BME280;65173;48.066;20.976;2024-02-15T11:41:31;101255.56;;;13.45;50.13
76124;BME280;65173;48.066;20.976;2024-02-15T11:44:34;101253.06;;;14.45;47.53
76124;BME280;65173;48.066;20.976;2024-02-15T11:47:40;101244.06;;;13.76;47.69
76124;BME280;65173;48.066;20.976;2024-02-15T11:50:51;101250.53;;;13.75;48.70
76124;BME280;65173;48.066;20.976;2024-02-15T11:54:07;101250.06;;;14.55;47.53
76124;BME280;65173;48.066;20.976;2024-02-15T11:57:15;101240.28;;;14.51;47.76
76124;BME280;65173;48.066;20.976;2024-02-15T12:00:24;101244.38;;;14.83;48.07
76124;BME280;65173;48.066;20.976;2024-02-15T12:04:00;101237.69;;;14.20;48.38
76124;BME280;65173;48.066;20.976;2024-02-15T12:07:22;101242.00;;;13.81;49.39
76124;BME280;65173;48.066;20.976;2024-02-15T12:10:43;101229.97;;;13.62;50.49
76124;BME280;65173;48.066;20.976;2024-02-15T12:14:04;101229.50;;;13.60;50.36
76124;BME280;65173;48.066;20.976;2024-02-15T12:17:26;101222.41;;;13.02;51.20
76124;BME280;65173;48.066;20.976;2024-02-15T12:20:47;101226.28;;;12.15;53.96
76124;BME280;65173;48.066;20.976;2024-02-15T12:23:49;101229.03;;;12.60;54.15
76124;BME280;65173;48.066;20.976;2024-02-15T12:27:01;101221.34;;;13.34;53.11
76124;BME280;65173;48.066;20.976;2024-02-15T12:30:06;101225.66;;;12.32;54.86
76124;BME280;65173;48.066;20.976;2024-02-15T12:33:12;101233.22;;;12.97;53.95
76124;BME280;65173;48.066;20.976;2024-02-15T12:36:19;101223.38;;;13.68;53.06
76124;BME280;65173;48.066;20.976;2024-02-15T12:39:25;101215.88;;;13.47;52.58
76124;BME280;65173;48.066;20.976;2024-02-15T12:42:28;101219.78;;;13.10;52.16
76124;BME280;65173;48.066;20.976;2024-02-15T12:45:32;101206.69;;;13.71;50.72
76124;BME280;65173;48.066;20.976;2024-02-15T12:48:39;101196.41;;;13.64;50.73
76124;BME280;65173;48.066;20.976;2024-02-15T12:51:51;101198.34;;;13.81;49.36
76124;BME280;65173;48.066;20.976;2024-02-15T12:55:16;101200.53;;;13.31;50.84
76124;BME280;65173;48.066;20.976;2024-02-15T12:58:20;101190.56;;;12.69;52.01
76124;BME280;65173;48.066;20.976;2024-02-15T13:01:22;101188.47;;;14.07;50.75
76124;BME280;65173;48.066;20.976;2024-02-15T13:04:26;101190.91;;;13.61;51.47
76124;BME280;65173;48.066;20.976;2024-02-15T13:07:31;101183.59;;;12.91;52.86
76124;BME280;65173;48.066;20.976;2024-02-15T13:10:33;101179.34;;;13.43;52.10
76124;BME280;65173;48.066;20.976;2024-02-15T13:13:36;101180.91;;;13.13;52.37
76124;BME280;65173;48.066;20.976;2024-02-15T13:16:39;101180.69;;;12.78;52.60
76124;BME280;65173;48.066;20.976;2024-02-15T13:19:46;101173.81;;;13.39;51.33
76124;BME280;65173;48.066;20.976;2024-02-15T13:22:51;101175.13;;;12.66;52.17
76124;BME280;65173;48.066;20.976;2024-02-15T13:25:56;101168.47;;;13.48;51.48
76124;BME280;65173;48.066;20.976;2024-02-15T13:28:59;101173.38;;;13.54;51.14
76124;BME280;65173;48.066;20.976;2024-02-15T13:32:04;101165.09;;;13.73;52.01
76124;BME280;65173;48.066;20.976;2024-02-15T13:35:09;101164.16;;;13.86;50.93
76124;BME280;65173;48.066;20.976;2024-02-15T13:38:20;101164.91;;;13.70;50.24
76124;BME280;65173;48.066;20.976;2024-02-15T13:41:26;101163.41;;;13.95;50.03
76124;BME280;65173;48.066;20.976;2024-02-15T13:44:29;101161.13;;;13.79;50.79
76124;BME280;65173;48.066;20.976;2024-02-15T13:47:32;101160.53;;;13.74;51.21
76124;BME280;65173;48.066;20.976;2024-02-15T13:50:36;101164.50;;;13.37;50.06
76124;BME280;65173;48.066;20.976;2024-02-15T13:53:39;101163.81;;;13.79;51.00
76124;BME280;65173;48.066;20.976;2024-02-15T13:56:41;101157.16;;;13.51;50.78
76124;BME280;65173;48.066;20.976;2024-02-15T13:59:44;101165.63;;;13.13;51.44
76124;BME280;65173;48.066;20.976;2024-02-15T14:02:50;101154.34;;;13.16;51.37
76124;BME280;65173;48.066;20.976;2024-02-15T14:05:53;101153.78;;;13.37;51.05
76124;BME280;65173;48.066;20.976;2024-02-15T14:08:57;101155.88;;;13.48;51.89
76124;BME280;65173;48.066;20.976;2024-02-15T14:12:00;101155.13;;;13.65;50.84
76124;BME280;65173;48.066;20.976;2024-02-15T14:15:07;101149.41;;;13.41;51.61
76124;BME280;65173;48.066;20.976;2024-02-15T14:18:11;101141.34;;;12.70;52.09
76124;BME280;65173;48.066;20.976;2024-02-15T14:21:17;101143.09;;;12.30;53.20
76124;BME280;65173;48.066;20.976;2024-02-15T14:24:20;101142.25;;;12.07;54.68
76124;BME280;65173;48.066;20.976;2024-02-15T14:27:25;101141.41;;;12.34;54.69
76124;BME280;65173;48.066;20.976;2024-02-15T14:30:28;101137.84;;;11.89;55.31
76124;BME280;65173;48.066;20.976;2024-02-15T14:33:49;101136.38;;;12.19;55.28
76124;BME280;65173;48.066;20.976;2024-02-15T14:36:53;101140.41;;;12.30;55.46
76124;BME280;65173;48.066;20.976;2024-02-15T14:39:55;101139.63;;;11.94;55.72
76124;BME280;65173;48.066;20.976;2024-02-15T14:42:58;101132.41;;;12.30;55.95
76124;BME280;65173;48.066;20.976;2024-02-15T14:46:01;101129.59;;;12.13;55.30
76124;BME280;65173;48.066;20.976;2024-02-15T14:49:07;101140.72;;;12.29;55.06
76124;BME280;65173;48.066;20.976;2024-02-15T14:52:10;101135.09;;;11.94;56.46
76124;BME280;65173;48.066;20.976;2024-02-15T14:55:14;101132.53;;;11.21;59.71
76124;BME280;65173;48.066;20.976;2024-02-15T14:58:17;101133.22;;;11.54;59.29
76124;BME280;65173;48.066;20.976;2024-02-15T15:01:20;101136.50;;;11.09;60.01
76124;BME280;65173;48.066;20.976;2024-02-15T15:04:23;101130.53;;;10.85;61.28
76124;BME280;65173;48.066;20.976;2024-02-15T15:07:26;101133.00;;;10.49;62.95
76124;BME280;65173;48.066;20.976;2024-02-15T15:10:48;101128.66;;;10.53;62.88
76124;BME280;65173;48.066;20.976;2024-02-15T15:14:09;101128.94;;;10.98;61.26
76124;BME280;65173;48.066;20.976;2024-02-15T15:17:11;101132.03;;;10.91;62.28
76124;BME280;65173;48.066;20.976;2024-02-15T15:20:18;101136.88;;;10.57;63.28
76124;BME280;65173;48.066;20.976;2024-02-15T15:23:22;101133.00;;;10.30;64.37
76124;BME280;65173;48.066;20.976;2024-02-15T15:26:24;101138.59;;;10.48;64.11
76124;BME280;65173;48.066;20.976;2024-02-15T15:29:27;101138.19;;;10.22;65.14
76124;BME280;65173;48.066;20.976;2024-02-15T15:32:29;101133.81;;;10.31;65.57
76124;BME280;65173;48.066;20.976;2024-02-15T15:35:32;101135.75;;;10.25;65.26
76124;BME280;65173;48.066;20.976;2024-02-15T15:38:36;101145.22;;;10.13;65.96
76124;BME280;65173;48.066;20.976;2024-02-15T15:41:39;101132.97;;;9.93;67.10
76124;BME280;65173;48.066;20.976;2024-02-15T15:44:42;101137.97;;;9.99;66.87
76124;BME280;65173;48.066;20.976;2024-02-15T15:47:45;101143.56;;;9.98;66.51
76124;BME280;65173;48.066;20.976;2024-02-15T15:50:48;101143.63;;;9.74;66.87
76124;BME280;65173;48.066;20.976;2024-02-15T15:53:51;101150.06;;;9.68;67.62
76124;BME280;65173;48.066;20.976;2024-02-15T15:56:54;101145.72;;;9.53;68.20
76124;BME280;65173;48.066;20.976;2024-02-15T15:59:58;101150.78;;;9.31;69.68